createdAt,value
2023-05-05T00:02:22.806Z,12.45
2023-05-05T00:04:50.056Z,14.23
2023-05-05T00:07:17.183Z,11.23
2023-05-05T00:09:44.721Z,12.25
2023-05-05T00:12:11.869Z,15.10
2023-05-05T00:14:39.005Z,15.05
2023-05-05T00:17:06.181Z,13.30
2023-05-05T00:19:33.404Z,13.57
2023-05-05T00:22:00.756Z,11.13
2023-05-05T00:24:28.019Z,17.33
2023-05-05T00:26:55.286Z,17.48
2023-05-05T00:29:22.690Z,14.50
2023-05-05T00:31:53.251Z,15.73
2023-05-05T00:34:20.766Z,15.95
2023-05-05T00:36:48.619Z,15.32
2023-05-05T00:39:16.885Z,12.63
2023-05-05T00:41:44.232Z,16.38
2023-05-05T00:44:11.731Z,14.77
2023-05-05T00:46:40.714Z,9.75
2023-05-05T00:49:07.967Z,9.95
2023-05-05T00:51:35.424Z,9.35
2023-05-05T00:54:02.968Z,10.27
2023-05-05T00:56:30.548Z,15.27
2023-05-05T00:58:59.342Z,17.73
2023-05-05T01:01:26.571Z,12.57
2023-05-05T01:03:53.822Z,10.55
2023-05-05T01:06:23.857Z,16.42
2023-05-05T01:09:24.719Z,17.02
2023-05-05T01:12:08.293Z,10.45
2023-05-05T01:14:44.310Z,8.05
2023-05-05T01:17:17.450Z,12.68
2023-05-05T01:20:01.674Z,11.70
2023-05-05T01:22:40.456Z,12.52
2023-05-05T01:25:39.483Z,12.73
2023-05-05T01:28:09.637Z,8.52
2023-05-05T01:31:14.619Z,5.65
2023-05-05T01:33:50.112Z,7.80
2023-05-05T01:36:24.319Z,14.25
2023-05-05T01:38:58.260Z,8.63
2023-05-05T01:41:32.144Z,9.55
2023-05-05T01:44:03.343Z,17.65
2023-05-05T01:46:30.725Z,20.48
2023-05-05T01:48:59.316Z,12.68
2023-05-05T01:51:28.107Z,8.75
2023-05-05T01:53:59.316Z,17.85
2023-05-05T01:56:28.402Z,8.23
2023-05-05T01:58:56.367Z,9.35
2023-05-05T02:01:26.649Z,5.35
2023-05-05T02:03:57.040Z,7.97
2023-05-05T02:06:27.091Z,8.35
2023-05-05T02:08:55.769Z,6.50
2023-05-05T02:11:24.143Z,6.85
2023-05-05T02:13:51.634Z,4.63
2023-05-05T02:16:20.448Z,4.85
2023-05-05T02:18:48.723Z,7.57
2023-05-05T02:21:18.285Z,11.73
2023-05-05T02:23:51.658Z,11.10
2023-05-05T02:26:22.097Z,12.18
2023-05-05T02:28:58.698Z,10.80
2023-05-05T02:31:27.729Z,11.32
2023-05-05T02:33:58.111Z,6.85
2023-05-05T02:36:29.960Z,12.43
2023-05-05T02:39:04.855Z,14.93
2023-05-05T02:41:39.650Z,15.48
2023-05-05T02:44:16.012Z,17.25
2023-05-05T02:46:43.831Z,21.65
2023-05-05T02:49:11.092Z,15.55
2023-05-05T02:51:39.819Z,11.52
2023-05-05T02:54:16.732Z,13.90
2023-05-05T02:56:51.187Z,18.58
2023-05-05T02:59:25.093Z,12.77
2023-05-05T03:02:14.035Z,13.40
2023-05-05T03:04:54.315Z,19.65
2023-05-05T03:07:27.835Z,13.90
2023-05-05T03:10:06.483Z,22.40
2023-05-05T03:12:48.562Z,22.30
2023-05-05T03:15:41.556Z,38.03
2023-05-05T03:18:13.246Z,37.05
2023-05-05T03:20:44.466Z,27.73
2023-05-05T03:23:14.721Z,32.53
2023-05-05T03:25:46.140Z,31.13
2023-05-05T03:28:22.006Z,36.25
2023-05-05T03:30:49.257Z,26.88
2023-05-05T03:33:19.475Z,35.13
2023-05-05T03:35:50.729Z,27.45
2023-05-05T03:38:18.758Z,23.92
2023-05-05T03:40:46.404Z,24.00
2023-05-05T03:43:17.618Z,19.77
2023-05-05T03:45:44.745Z,20.33
2023-05-05T03:48:12.323Z,19.33
2023-05-05T03:50:41.262Z,24.60
2023-05-05T03:53:09.241Z,27.45
2023-05-05T03:55:37.111Z,21.00
2023-05-05T03:58:04.173Z,27.17
2023-05-05T04:00:32.306Z,25.90
2023-05-05T04:02:59.999Z,26.70
2023-05-05T04:05:27.244Z,24.85
2023-05-05T04:07:54.158Z,19.40
2023-05-05T04:10:21.723Z,24.20
2023-05-05T04:12:49.047Z,15.85
2023-05-05T04:15:16.652Z,14.75
2023-05-05T04:17:44.295Z,25.35
2023-05-05T04:20:11.727Z,13.35
2023-05-05T04:22:39.613Z,12.30
2023-05-05T04:25:07.669Z,13.38
2023-05-05T04:27:34.911Z,17.98
2023-05-05T04:30:02.227Z,14.18
2023-05-05T04:32:31.181Z,16.30
2023-05-05T04:34:58.885Z,18.33
2023-05-05T04:37:26.907Z,23.23
2023-05-05T04:39:54.107Z,14.45
2023-05-05T04:42:21.534Z,14.38
2023-05-05T04:44:48.558Z,16.38
2023-05-05T04:47:15.609Z,12.15
2023-05-05T04:49:43.629Z,11.05
2023-05-05T04:52:13.518Z,12.55
2023-05-05T04:54:40.572Z,11.30
2023-05-05T04:57:08.088Z,10.93
2023-05-05T04:59:36.960Z,9.63
2023-05-05T05:02:04.526Z,12.20
2023-05-05T05:04:31.726Z,6.57
2023-05-05T05:06:59.465Z,6.78
2023-05-05T05:09:27.651Z,8.77
2023-05-05T05:11:54.667Z,12.93
2023-05-05T05:14:21.966Z,9.30
2023-05-05T05:16:52.589Z,11.10
2023-05-05T05:19:22.000Z,12.23
2023-05-05T05:21:49.122Z,8.52
2023-05-05T05:24:16.404Z,8.68
2023-05-05T05:26:43.946Z,6.70
2023-05-05T05:29:11.376Z,13.35
2023-05-05T05:31:40.020Z,11.60
2023-05-05T05:34:07.930Z,8.68
2023-05-05T05:36:36.617Z,4.85
2023-05-05T05:39:03.873Z,11.38
2023-05-05T05:41:30.975Z,15.70
2023-05-05T05:44:01.521Z,3.53
2023-05-05T05:46:29.733Z,12.10
2023-05-05T05:48:57.872Z,7.32
2023-05-05T05:51:25.649Z,15.02
2023-05-05T05:53:53.003Z,8.45
2023-05-05T05:56:20.068Z,4.82
2023-05-05T05:58:48.808Z,5.50
2023-05-05T06:01:19.202Z,10.47
2023-05-05T06:03:47.147Z,7.40
2023-05-05T06:06:14.360Z,5.22
2023-05-05T06:08:41.421Z,7.63
2023-05-05T06:11:08.359Z,5.57
2023-05-05T06:13:35.479Z,12.30
2023-05-05T06:16:02.557Z,3.45
2023-05-05T06:18:29.564Z,9.13
2023-05-05T06:20:56.562Z,8.52
2023-05-05T06:23:27.392Z,11.30
2023-05-05T06:26:00.273Z,7.30
2023-05-05T06:28:27.341Z,6.55
2023-05-05T06:30:54.789Z,7.63
2023-05-05T06:33:21.907Z,10.35
2023-05-05T06:35:49.681Z,18.70
2023-05-05T06:38:16.680Z,8.52
2023-05-05T06:40:43.675Z,10.15
2023-05-05T06:43:11.244Z,7.90
2023-05-05T06:45:44.959Z,4.85
2023-05-05T06:48:12.475Z,10.23
2023-05-05T06:50:39.457Z,10.85
2023-05-05T06:53:06.690Z,11.75
2023-05-05T06:55:33.814Z,7.28
2023-05-05T06:58:01.010Z,8.45
2023-05-05T07:00:28.079Z,11.73
2023-05-05T07:02:55.247Z,5.03
2023-05-05T07:05:22.469Z,6.10
2023-05-05T07:07:53.854Z,4.50
2023-05-05T07:10:22.651Z,9.18
2023-05-05T07:12:51.705Z,9.63
2023-05-05T07:15:27.490Z,6.78
2023-05-05T07:17:56.645Z,8.25
2023-05-05T07:20:24.354Z,11.98
2023-05-05T07:22:51.576Z,7.47
2023-05-05T07:25:18.698Z,9.65
2023-05-05T07:27:45.755Z,11.75
2023-05-05T07:30:15.555Z,5.80
2023-05-05T07:32:44.538Z,7.60
2023-05-05T07:35:11.869Z,5.97
2023-05-05T07:37:38.878Z,8.73
2023-05-05T07:40:06.653Z,5.22
2023-05-05T07:42:33.813Z,5.43
2023-05-05T07:45:00.899Z,6.88
2023-05-05T07:47:27.879Z,5.95
2023-05-05T07:49:55.041Z,11.43
2023-05-05T07:52:33.173Z,8.93
2023-05-05T07:55:05.056Z,9.73
2023-05-05T07:57:32.019Z,13.65
2023-05-05T07:59:59.024Z,7.82
2023-05-05T08:02:26.131Z,6.90
2023-05-05T08:04:53.071Z,11.70
2023-05-05T08:07:20.215Z,6.72
2023-05-05T08:09:47.182Z,11.32
2023-05-05T08:12:15.323Z,11.65
2023-05-05T08:14:42.651Z,7.50
2023-05-05T08:17:09.622Z,9.63
2023-05-05T08:19:36.824Z,9.93
2023-05-05T08:22:04.026Z,15.20
2023-05-05T08:24:31.315Z,7.00
2023-05-05T08:26:58.266Z,10.20
2023-05-05T08:29:25.324Z,5.53
2023-05-05T08:31:53.100Z,5.53
2023-05-05T08:34:20.273Z,9.27
2023-05-05T08:36:49.188Z,13.52
2023-05-05T08:39:16.672Z,7.55
2023-05-05T08:41:43.792Z,18.27
2023-05-05T08:44:11.400Z,7.72
2023-05-05T08:46:39.847Z,16.27
2023-05-05T08:49:13.338Z,18.13
2023-05-05T08:51:44.354Z,8.25
2023-05-05T08:54:18.440Z,7.72
2023-05-05T08:56:47.287Z,4.93
2023-05-05T08:59:15.849Z,9.80
2023-05-05T09:01:44.441Z,5.75
2023-05-05T09:04:11.723Z,7.78
2023-05-05T09:06:38.927Z,7.93
2023-05-05T09:09:06.862Z,5.00
2023-05-05T09:11:35.401Z,7.10
2023-05-05T09:14:02.485Z,12.07
2023-05-05T09:16:29.810Z,10.00
2023-05-05T09:19:06.092Z,12.48
2023-05-05T09:21:33.604Z,7.80
2023-05-05T09:24:09.411Z,4.25
2023-05-05T09:26:39.745Z,4.63
2023-05-05T09:29:06.979Z,5.53
2023-05-05T09:31:36.445Z,8.35
2023-05-05T09:34:15.105Z,6.95
2023-05-05T09:36:50.207Z,7.05
2023-05-05T09:39:19.897Z,8.30
2023-05-05T09:41:47.410Z,5.72
2023-05-05T09:44:17.448Z,4.47
2023-05-05T09:46:55.462Z,7.68
2023-05-05T09:49:25.620Z,8.05
2023-05-05T09:51:54.933Z,5.68
2023-05-05T09:54:29.083Z,6.15
2023-05-05T09:56:59.210Z,8.30
2023-05-05T09:59:26.334Z,11.25
2023-05-05T10:01:53.814Z,7.75
2023-05-05T10:04:28.668Z,5.53
2023-05-05T10:06:59.509Z,7.88
2023-05-05T10:09:28.228Z,6.32
2023-05-05T10:11:58.054Z,6.63
2023-05-05T10:14:25.964Z,5.20
2023-05-05T10:16:55.148Z,6.28
2023-05-05T10:19:24.004Z,6.68
2023-05-05T10:22:02.212Z,5.75
2023-05-05T10:24:39.134Z,9.25
2023-05-05T10:27:34.828Z,9.40
2023-05-05T10:30:07.570Z,5.95
2023-05-05T10:37:44.833Z,5.63
2023-05-05T10:40:13.940Z,8.77
2023-05-05T10:42:41.634Z,9.68
2023-05-05T10:45:09.696Z,3.88
2023-05-05T10:47:40.402Z,7.20
2023-05-05T10:50:21.695Z,4.07
2023-05-05T10:53:11.200Z,6.07
2023-05-05T10:56:02.452Z,7.43
2023-05-05T10:58:55.570Z,4.78
2023-05-05T11:01:33.822Z,7.72
2023-05-05T11:04:22.946Z,6.25
2023-05-05T11:07:09.802Z,4.80
2023-05-05T11:09:55.774Z,9.45
2023-05-05T11:12:23.101Z,4.75
2023-05-05T11:15:28.567Z,5.35
2023-05-05T11:17:59.766Z,4.07
2023-05-05T11:20:39.948Z,5.50
2023-05-05T11:23:07.622Z,5.50
2023-05-05T11:25:40.925Z,7.78
2023-05-05T11:28:09.657Z,6.63
2023-05-05T11:30:57.549Z,6.50
2023-05-05T11:33:40.039Z,4.25
2023-05-05T11:36:08.956Z,12.18
2023-05-05T11:39:07.351Z,4.28
2023-05-05T11:41:40.326Z,6.10
2023-05-05T11:44:14.279Z,3.88
2023-05-05T11:47:04.327Z,3.78
2023-05-05T11:49:36.939Z,5.78
2023-05-05T11:52:06.442Z,6.85
2023-05-05T11:54:36.626Z,7.88
2023-05-05T11:57:08.475Z,4.93
2023-05-05T11:59:37.555Z,6.00
2023-05-05T12:02:05.430Z,6.77
2023-05-05T12:04:32.843Z,8.77
2023-05-05T12:07:00.420Z,5.07
2023-05-05T12:09:27.876Z,4.15
2023-05-05T12:11:57.132Z,7.60
2023-05-05T12:14:25.743Z,6.87
2023-05-05T12:17:08.849Z,7.20
2023-05-05T12:19:36.537Z,6.88
2023-05-05T12:22:05.031Z,4.47
2023-05-05T12:24:32.597Z,9.02
2023-05-05T12:27:10.717Z,6.45
2023-05-05T12:29:38.208Z,4.80
2023-05-05T12:32:05.819Z,11.73
2023-05-05T12:34:33.428Z,4.28
2023-05-05T12:37:01.311Z,3.40
2023-05-05T12:39:36.450Z,3.83
2023-05-05T12:42:06.704Z,5.93
2023-05-05T12:44:38.142Z,8.63
2023-05-05T12:47:07.323Z,4.18
2023-05-05T12:49:54.660Z,3.08
2023-05-05T12:52:21.847Z,8.18
2023-05-05T12:54:59.408Z,3.35
2023-05-05T12:57:26.733Z,7.97
2023-05-05T12:59:53.925Z,10.18
2023-05-05T13:02:21.602Z,3.15
2023-05-05T13:04:53.407Z,7.68
2023-05-05T13:07:22.335Z,5.68
2023-05-05T13:09:51.202Z,6.88
2023-05-05T13:12:18.957Z,6.47
2023-05-05T13:14:46.964Z,5.20
2023-05-05T13:17:14.870Z,5.10
2023-05-05T13:19:46.056Z,3.38
2023-05-05T13:22:14.096Z,3.83
2023-05-05T13:24:51.592Z,4.63
2023-05-05T13:27:20.865Z,6.25
2023-05-05T13:29:48.191Z,4.80
2023-05-05T13:32:15.504Z,4.65
2023-05-05T13:34:43.662Z,9.13
2023-05-05T13:37:10.827Z,7.95
2023-05-05T13:39:37.948Z,3.78
2023-05-05T13:42:05.158Z,6.47
2023-05-05T13:44:32.315Z,7.70
2023-05-05T13:46:59.609Z,3.47
2023-05-05T13:49:27.194Z,10.40
2023-05-05T13:51:55.259Z,3.53
2023-05-05T13:54:22.518Z,9.00
2023-05-05T13:56:49.707Z,4.55
2023-05-05T13:59:16.748Z,5.18
2023-05-05T14:01:44.018Z,5.78
2023-05-05T14:04:11.246Z,10.18
2023-05-05T14:06:38.589Z,3.30
2023-05-05T14:09:06.530Z,7.40
2023-05-05T14:11:33.888Z,5.32
2023-05-05T14:14:01.776Z,5.63
2023-05-05T14:16:29.148Z,10.23
2023-05-05T14:18:56.211Z,3.83
2023-05-05T14:21:23.356Z,5.88
2023-05-05T14:23:50.504Z,5.18
2023-05-05T14:26:18.196Z,15.98
2023-05-05T14:28:47.278Z,7.80
2023-05-05T14:31:16.052Z,3.30
2023-05-05T14:33:43.261Z,3.08
2023-05-05T14:36:10.568Z,6.22
2023-05-05T14:38:37.562Z,2.42
2023-05-05T14:41:04.849Z,4.43
2023-05-05T14:43:32.055Z,2.63
2023-05-05T14:46:01.020Z,5.10
2023-05-05T14:48:28.488Z,5.30
2023-05-05T14:50:55.662Z,4.60
2023-05-05T14:53:22.728Z,9.20
2023-05-05T14:55:49.910Z,10.50
2023-05-05T14:58:18.928Z,8.00
2023-05-05T15:00:45.990Z,5.55
2023-05-05T15:03:13.214Z,5.45
2023-05-05T15:05:40.585Z,7.75
2023-05-05T15:08:07.854Z,12.00
2023-05-05T15:10:35.031Z,7.78
2023-05-05T15:13:02.354Z,7.45
2023-05-05T15:15:29.430Z,7.63
2023-05-05T15:17:56.704Z,4.55
2023-05-05T15:20:23.978Z,8.77
2023-05-05T15:22:51.024Z,8.05
2023-05-05T15:25:19.386Z,5.68
2023-05-05T15:27:47.360Z,7.35
2023-05-05T15:30:14.786Z,7.38
2023-05-05T15:32:42.155Z,5.13
2023-05-05T15:35:09.630Z,3.80
2023-05-05T15:37:38.227Z,8.73
2023-05-05T15:40:05.936Z,4.30
2023-05-05T15:42:34.092Z,9.27
2023-05-05T15:45:02.016Z,5.82
2023-05-05T15:47:33.137Z,5.25
2023-05-05T15:50:00.606Z,5.18
2023-05-05T15:52:27.915Z,5.57
2023-05-05T15:54:55.080Z,9.27
2023-05-05T15:57:22.229Z,6.25
2023-05-05T15:59:53.159Z,5.32
2023-05-05T16:02:21.576Z,3.58
2023-05-05T16:04:48.723Z,4.97
2023-05-05T16:07:15.860Z,9.13
2023-05-05T16:09:43.199Z,9.52
2023-05-05T16:12:14.102Z,10.35
2023-05-05T16:14:41.220Z,3.47
2023-05-05T16:17:09.197Z,5.25
2023-05-05T16:19:36.398Z,5.00
2023-05-05T16:22:03.453Z,15.07
2023-05-05T16:24:32.211Z,7.53
2023-05-05T16:26:59.283Z,7.97
2023-05-05T16:29:26.880Z,7.95
2023-05-05T16:31:54.032Z,7.47
2023-05-05T16:34:21.165Z,8.02
2023-05-05T16:36:48.234Z,2.40
2023-05-05T16:39:15.356Z,9.63
2023-05-05T16:41:42.415Z,6.60
2023-05-05T16:44:09.653Z,5.57
2023-05-05T16:46:37.802Z,6.65
2023-05-05T16:49:04.956Z,4.68
2023-05-05T16:51:32.274Z,10.07
2023-05-05T16:53:59.329Z,16.60
2023-05-05T16:56:26.640Z,6.78
2023-05-05T16:58:53.846Z,9.60
2023-05-05T17:01:21.144Z,15.50
2023-05-05T17:03:48.427Z,11.68
2023-05-05T17:06:15.507Z,9.45
2023-05-05T17:08:42.962Z,9.48
2023-05-05T17:11:11.762Z,8.05
2023-05-05T17:13:39.218Z,10.55
2023-05-05T17:16:06.688Z,9.25
2023-05-05T17:18:33.934Z,8.25
2023-05-05T17:21:01.076Z,7.22
2023-05-05T17:23:28.219Z,13.38
2023-05-05T17:25:55.257Z,9.32
2023-05-05T17:28:22.616Z,9.27
2023-05-05T17:30:49.769Z,12.80
2023-05-05T17:33:21.564Z,8.60
2023-05-05T17:35:48.745Z,50.95
2023-05-05T17:38:16.267Z,22.83
2023-05-05T17:40:43.505Z,21.77
2023-05-05T17:43:10.576Z,16.13
2023-05-05T17:45:37.842Z,15.18
2023-05-05T17:48:05.727Z,7.03
2023-05-05T17:50:32.925Z,16.38
2023-05-05T17:53:00.162Z,6.43
2023-05-05T17:55:28.006Z,12.07
2023-05-05T17:57:57.298Z,22.80
2023-05-05T18:00:24.506Z,12.95
2023-05-05T18:02:51.582Z,9.48
2023-05-05T18:05:18.765Z,10.73
2023-05-05T18:07:45.858Z,11.70
2023-05-05T18:10:13.064Z,10.13
2023-05-05T18:12:40.286Z,28.17
2023-05-05T18:15:09.062Z,11.02
2023-05-05T18:17:37.513Z,13.43
2023-05-05T18:20:07.021Z,22.20
2023-05-05T18:22:34.666Z,28.20
2023-05-05T18:25:01.912Z,20.38
2023-05-05T18:27:36.084Z,23.23
2023-05-05T18:30:05.015Z,15.50
2023-05-05T18:32:34.109Z,21.20
2023-05-05T18:35:01.368Z,14.82
2023-05-05T18:37:28.624Z,19.90
2023-05-05T18:39:56.009Z,10.05
2023-05-05T18:42:23.288Z,17.80
2023-05-05T18:44:50.420Z,9.07
2023-05-05T18:47:17.613Z,15.25
2023-05-05T18:49:45.560Z,14.88
2023-05-05T18:52:13.804Z,11.25
2023-05-05T18:54:41.198Z,11.38
2023-05-05T18:57:09.451Z,11.20
2023-05-05T19:02:20.353Z,14.10
2023-05-05T19:04:47.547Z,11.57
2023-05-05T19:07:27.665Z,12.30
2023-05-05T19:10:01.296Z,14.02
2023-05-05T19:12:30.768Z,8.07
2023-05-05T19:14:58.044Z,11.05
2023-05-05T19:17:25.446Z,16.33
2023-05-05T19:19:52.599Z,22.73
2023-05-05T19:22:20.846Z,10.88
2023-05-05T19:24:48.042Z,24.08
2023-05-05T19:27:17.039Z,11.30
2023-05-05T19:29:44.661Z,17.10
2023-05-05T19:32:11.866Z,16.33
2023-05-05T19:34:39.179Z,16.08
2023-05-05T19:37:06.433Z,13.38
2023-05-05T19:39:33.549Z,16.67
2023-05-05T19:42:01.076Z,18.50
2023-05-05T19:44:28.233Z,17.90
2023-05-05T19:46:55.410Z,21.83
2023-05-05T19:49:22.820Z,11.95
2023-05-05T19:51:52.229Z,15.32
2023-05-05T19:54:19.326Z,13.93
2023-05-05T19:56:46.386Z,17.85
2023-05-05T19:59:13.667Z,13.38
2023-05-05T20:01:40.969Z,19.65
2023-05-05T20:04:08.151Z,19.15
2023-05-05T20:06:36.369Z,16.25
2023-05-05T20:09:04.666Z,14.43
2023-05-05T20:11:32.110Z,30.23
2023-05-05T20:13:59.576Z,22.10
2023-05-05T20:16:26.999Z,19.88
2023-05-05T20:18:54.223Z,23.00
2023-05-05T20:21:21.372Z,17.67
2023-05-05T20:23:48.631Z,11.48
2023-05-05T20:26:15.883Z,15.35
2023-05-05T20:28:45.296Z,10.55
2023-05-05T20:31:14.634Z,17.42
2023-05-05T20:33:41.971Z,10.27
2023-05-05T20:36:09.602Z,14.65
2023-05-05T20:38:39.053Z,19.80
2023-05-05T20:41:06.563Z,12.80
2023-05-05T20:43:34.046Z,14.85
2023-05-05T20:46:01.292Z,7.80
2023-05-05T20:48:29.519Z,12.55
2023-05-05T20:50:57.383Z,10.60
2023-05-05T20:53:25.576Z,11.70
2023-05-05T20:55:52.773Z,10.07
2023-05-05T20:58:19.868Z,9.15
2023-05-05T21:00:47.379Z,7.78
2023-05-05T21:03:14.651Z,12.25
2023-05-05T21:05:41.692Z,10.65
2023-05-05T21:08:09.022Z,8.10
2023-05-05T21:10:36.602Z,11.05
2023-05-05T21:13:05.005Z,10.70
2023-05-05T21:15:32.194Z,8.35
2023-05-05T21:17:59.480Z,7.72
2023-05-05T21:20:27.050Z,5.30
2023-05-05T21:22:54.137Z,8.50
2023-05-05T21:25:21.686Z,9.57
2023-05-05T21:27:49.281Z,5.70
2023-05-05T21:30:17.340Z,4.82
2023-05-05T21:32:45.010Z,9.35
2023-05-05T21:35:12.561Z,3.05
2023-05-05T21:37:40.156Z,3.75
2023-05-05T21:40:13.872Z,4.95
2023-05-05T21:42:42.174Z,2.78
2023-05-05T21:45:11.134Z,6.55
2023-05-05T21:47:38.144Z,5.22
2023-05-05T21:50:05.690Z,15.07
2023-05-05T21:52:32.928Z,7.93
2023-05-05T21:55:00.188Z,4.97
2023-05-05T21:57:27.412Z,4.50
2023-05-05T21:59:54.460Z,4.68
2023-05-05T22:02:21.588Z,5.55
2023-05-05T22:04:51.377Z,4.03
2023-05-05T22:07:18.528Z,3.42
2023-05-05T22:09:46.094Z,5.15
2023-05-05T22:12:13.287Z,3.08
2023-05-05T22:14:40.320Z,3.90
2023-05-05T22:17:07.430Z,4.90
2023-05-05T22:19:34.458Z,4.97
2023-05-05T22:22:01.698Z,4.60
2023-05-05T22:24:29.763Z,4.10
2023-05-05T22:26:57.450Z,5.45
2023-05-05T22:29:25.341Z,6.15
2023-05-05T22:31:52.953Z,5.45
2023-05-05T22:34:21.971Z,6.00
2023-05-05T22:36:49.971Z,3.30
2023-05-05T22:39:18.659Z,5.18
2023-05-05T22:41:45.938Z,3.35
2023-05-05T22:44:13.083Z,8.25
2023-05-05T22:46:41.000Z,5.15
2023-05-05T22:49:08.129Z,3.67
2023-05-05T22:51:35.311Z,2.97
2023-05-05T22:54:02.426Z,6.20
2023-05-05T22:56:29.535Z,2.30
2023-05-05T22:58:56.663Z,4.07
2023-05-05T23:01:24.078Z,5.88
2023-05-05T23:03:51.231Z,2.17
2023-05-05T23:06:18.337Z,5.40
2023-05-05T23:08:46.256Z,3.72
2023-05-05T23:11:13.305Z,6.22
2023-05-05T23:13:40.313Z,2.92
2023-05-05T23:16:07.583Z,3.70
2023-05-05T23:18:36.754Z,3.15
2023-05-05T23:21:04.138Z,2.58
2023-05-05T23:23:31.328Z,3.17
2023-05-05T23:25:58.419Z,3.20
2023-05-05T23:28:25.560Z,3.15
2023-05-05T23:30:52.698Z,3.53
2023-05-05T23:33:19.863Z,3.40
2023-05-05T23:35:47.223Z,3.38
2023-05-05T23:38:14.124Z,7.35
2023-05-05T23:40:41.114Z,6.47
2023-05-05T23:43:08.191Z,4.25
2023-05-05T23:45:35.265Z,3.53
2023-05-05T23:48:02.404Z,2.70
2023-05-05T23:50:30.459Z,2.90
2023-05-05T23:52:57.647Z,6.03
2023-05-05T23:55:24.703Z,6.45
2023-05-05T23:57:53.176Z,6.60
